sensor_id;sensor_type;location;lat;lon;timestamp;P1;durP1;ratioP1;P2;durP2;ratioP2
9940;SDS011;5009;50.656;7.188;2023-10-19T04:01:08;10.90;;;9.87;;
9940;SDS011;5009;50.656;7.188;2023-10-19T04:03:35;11.03;;;9.80;;
9940;SDS011;5009;50.656;7.188;2023-10-19T04:06:01;11.73;;;10.60;;
9940;SDS011;5009;50.656;7.188;2023-10-19T04:08:29;13.50;;;11.87;;
9940;SDS011;5009;50.656;7.188;2023-10-19T04:11:02;12.77;;;11.50;;
9940;SDS011;5009;50.656;7.188;2023-10-19T04:13:36;12.23;;;11.13;;
9940;SDS011;5009;50.656;7.188;2023-10-19T04:16:02;12.37;;;11.13;;
9940;SDS011;5009;50.656;7.188;2023-10-19T04:18:28;11.63;;;10.53;;
9940;SDS011;5009;50.656;7.188;2023-10-19T04:20:54;11.47;;;10.37;;
9940;SDS011;5009;50.656;7.188;2023-10-19T04:23:20;12.43;;;11.13;;
9940;SDS011;5009;50.656;7.188;2023-10-19T04:25:47;11.90;;;10.80;;
9940;SDS011;5009;50.656;7.188;2023-10-19T04:28:12;12.13;;;11.00;;
9940;SDS011;5009;50.656;7.188;2023-10-19T04:30:45;11.30;;;10.20;;
9940;SDS011;5009;50.656;7.188;2023-10-19T04:33:13;11.87;;;10.67;;
9940;SDS011;5009;50.656;7.188;2023-10-19T04:35:41;12.03;;;10.90;;
9940;SDS011;5009;50.656;7.188;2023-10-19T04:38:07;11.30;;;10.00;;
9940;SDS011;5009;50.656;7.188;2023-10-19T04:40:32;10.37;;;9.37;;
9940;SDS011;5009;50.656;7.188;2023-10-19T04:42:58;10.50;;;9.47;;
9940;SDS011;5009;50.656;7.188;2023-10-19T04:45:28;13.07;;;9.40;;
9940;SDS011;5009;50.656;7.188;2023-10-19T04:47:54;10.80;;;9.63;;
9940;SDS011;5009;50.656;7.188;2023-10-19T04:50:20;11.20;;;10.10;;
9940;SDS011;5009;50.656;7.188;2023-10-19T04:52:46;10.90;;;9.53;;
9940;SDS011;5009;50.656;7.188;2023-10-19T04:55:12;10.57;;;9.57;;
9940;SDS011;5009;50.656;7.188;2023-10-19T04:57:38;11.30;;;10.03;;
9940;SDS011;5009;50.656;7.188;2023-10-19T05:00:04;10.60;;;9.60;;
9940;SDS011;5009;50.656;7.188;2023-10-19T05:02:30;10.90;;;9.83;;
9940;SDS011;5009;50.656;7.188;2023-10-19T05:04:56;11.63;;;10.53;;
9940;SDS011;5009;50.656;7.188;2023-10-19T05:07:22;10.47;;;9.47;;
9940;SDS011;5009;50.656;7.188;2023-10-19T05:09:48;10.93;;;9.67;;
9940;SDS011;5009;50.656;7.188;2023-10-19T05:12:14;10.80;;;9.80;;
9940;SDS011;5009;50.656;7.188;2023-10-19T05:14:40;10.47;;;9.40;;
9940;SDS011;5009;50.656;7.188;2023-10-19T05:17:07;10.47;;;9.47;;
9940;SDS011;5009;50.656;7.188;2023-10-19T05:19:37;10.67;;;9.60;;
9940;SDS011;5009;50.656;7.188;2023-10-19T05:22:04;11.47;;;10.37;;
9940;SDS011;5009;50.656;7.188;2023-10-19T05:24:31;10.43;;;9.43;;
9940;SDS011;5009;50.656;7.188;2023-10-19T05:26:57;12.83;;;11.43;;
9940;SDS011;5009;50.656;7.188;2023-10-19T05:29:23;13.37;;;12.03;;
9940;SDS011;5009;50.656;7.188;2023-10-19T05:31:50;13.70;;;12.40;;
9940;SDS011;5009;50.656;7.188;2023-10-19T05:34:21;14.10;;;12.60;;
9940;SDS011;5009;50.656;7.188;2023-10-19T05:36:47;12.60;;;11.20;;
9940;SDS011;5009;50.656;7.188;2023-10-19T05:39:16;13.80;;;11.30;;
9940;SDS011;5009;50.656;7.188;2023-10-19T05:41:42;10.93;;;9.93;;
9940;SDS011;5009;50.656;7.188;2023-10-19T05:44:08;11.63;;;10.43;;
9940;SDS011;5009;50.656;7.188;2023-10-19T05:46:34;12.87;;;11.50;;
9940;SDS011;5009;50.656;7.188;2023-10-19T05:49:00;12.10;;;10.90;;
9940;SDS011;5009;50.656;7.188;2023-10-19T05:51:28;11.23;;;9.57;;
9940;SDS011;5009;50.656;7.188;2023-10-19T05:53:55;12.70;;;11.37;;
9940;SDS011;5009;50.656;7.188;2023-10-19T05:56:26;11.53;;;10.23;;
9940;SDS011;5009;50.656;7.188;2023-10-19T05:58:52;12.90;;;9.93;;
9940;SDS011;5009;50.656;7.188;2023-10-19T06:01:18;12.90;;;10.80;;
9940;SDS011;5009;50.656;7.188;2023-10-19T06:03:45;11.97;;;10.77;;
9940;SDS011;5009;50.656;7.188;2023-10-19T06:06:10;12.53;;;11.33;;
9940;SDS011;5009;50.656;7.188;2023-10-19T06:08:36;12.97;;;11.30;;
9940;SDS011;5009;50.656;7.188;2023-10-19T06:11:02;13.40;;;11.50;;
9940;SDS011;5009;50.656;7.188;2023-10-19T06:13:27;12.10;;;11.07;;
9940;SDS011;5009;50.656;7.188;2023-10-19T06:15:54;12.43;;;11.23;;
9940;SDS011;5009;50.656;7.188;2023-10-19T06:18:20;12.50;;;11.27;;
9940;SDS011;5009;50.656;7.188;2023-10-19T06:20:45;13.77;;;12.33;;
9940;SDS011;5009;50.656;7.188;2023-10-19T06:23:13;13.70;;;12.23;;
9940;SDS011;5009;50.656;7.188;2023-10-19T06:25:39;13.20;;;11.93;;
9940;SDS011;5009;50.656;7.188;2023-10-19T06:28:04;14.07;;;11.77;;
9940;SDS011;5009;50.656;7.188;2023-10-19T06:30:30;16.60;;;12.87;;
9940;SDS011;5009;50.656;7.188;2023-10-19T06:32:57;14.77;;;13.10;;
9940;SDS011;5009;50.656;7.188;2023-10-19T06:35:27;14.07;;;12.87;;
9940;SDS011;5009;50.656;7.188;2023-10-19T06:37:54;15.57;;;13.13;;
9940;SDS011;5009;50.656;7.188;2023-10-19T06:40:20;15.03;;;12.87;;
9940;SDS011;5009;50.656;7.188;2023-10-19T06:42:47;13.53;;;12.17;;
9940;SDS011;5009;50.656;7.188;2023-10-19T06:45:13;13.17;;;11.77;;
9940;SDS011;5009;50.656;7.188;2023-10-19T06:47:40;13.20;;;11.67;;
9940;SDS011;5009;50.656;7.188;2023-10-19T06:50:07;14.00;;;12.60;;
9940;SDS011;5009;50.656;7.188;2023-10-19T06:52:35;13.67;;;12.37;;
9940;SDS011;5009;50.656;7.188;2023-10-19T06:55:05;12.83;;;11.57;;
9940;SDS011;5009;50.656;7.188;2023-10-19T06:57:51;14.47;;;12.97;;
9940;SDS011;5009;50.656;7.188;2023-10-19T07:00:21;14.70;;;12.40;;
9940;SDS011;5009;50.656;7.188;2023-10-19T07:02:51;13.03;;;11.50;;
9940;SDS011;5009;50.656;7.188;2023-10-19T07:05:20;13.90;;;12.50;;
9940;SDS011;5009;50.656;7.188;2023-10-19T07:07:47;13.57;;;12.20;;
9940;SDS011;5009;50.656;7.188;2023-10-19T07:10:15;12.90;;;11.63;;
9940;SDS011;5009;50.656;7.188;2023-10-19T07:12:48;12.90;;;11.53;;
9940;SDS011;5009;50.656;7.188;2023-10-19T07:15:16;14.30;;;12.80;;
9940;SDS011;5009;50.656;7.188;2023-10-19T07:17:48;13.07;;;11.83;;
9940;SDS011;5009;50.656;7.188;2023-10-19T07:20:17;12.83;;;11.37;;
9940;SDS011;5009;50.656;7.188;2023-10-19T07:22:54;13.30;;;10.67;;
9940;SDS011;5009;50.656;7.188;2023-10-19T07:25:21;11.83;;;10.73;;
9940;SDS011;5009;50.656;7.188;2023-10-19T07:27:51;11.77;;;10.57;;
9940;SDS011;5009;50.656;7.188;2023-10-19T07:30:17;13.23;;;9.40;;
9940;SDS011;5009;50.656;7.188;2023-10-19T07:32:51;11.47;;;8.97;;
9940;SDS011;5009;50.656;7.188;2023-10-19T07:35:20;9.43;;;7.87;;
9940;SDS011;5009;50.656;7.188;2023-10-19T07:37:47;10.53;;;8.03;;
9940;SDS011;5009;50.656;7.188;2023-10-19T07:40:15;8.53;;;7.70;;
9940;SDS011;5009;50.656;7.188;2023-10-19T07:42:42;7.87;;;7.17;;
9940;SDS011;5009;50.656;7.188;2023-10-19T07:45:08;9.30;;;7.47;;
9940;SDS011;5009;50.656;7.188;2023-10-19T07:47:40;9.23;;;7.00;;
9940;SDS011;5009;50.656;7.188;2023-10-19T07:50:10;8.27;;;7.47;;
9940;SDS011;5009;50.656;7.188;2023-10-19T07:55:14;7.30;;;6.53;;
9940;SDS011;5009;50.656;7.188;2023-10-19T07:57:41;7.53;;;6.57;;
9940;SDS011;5009;50.656;7.188;2023-10-19T08:00:07;8.33;;;6.20;;
9940;SDS011;5009;50.656;7.188;2023-10-19T08:02:35;8.33;;;7.40;;
9940;SDS011;5009;50.656;7.188;2023-10-19T08:05:05;8.27;;;7.43;;
9940;SDS011;5009;50.656;7.188;2023-10-19T08:07:32;10.37;;;8.00;;
9940;SDS011;5009;50.656;7.188;2023-10-19T08:09:59;10.20;;;7.97;;
9940;SDS011;5009;50.656;7.188;2023-10-19T08:12:25;9.50;;;8.17;;
9940;SDS011;5009;50.656;7.188;2023-10-19T08:14:54;9.70;;;7.93;;
9940;SDS011;5009;50.656;7.188;2023-10-19T08:17:20;7.90;;;7.10;;
9940;SDS011;5009;50.656;7.188;2023-10-19T08:19:46;7.40;;;6.23;;
9940;SDS011;5009;50.656;7.188;2023-10-19T08:22:12;7.15;;;6.07;;
9940;SDS011;5009;50.656;7.188;2023-10-19T08:24:39;7.10;;;5.63;;
9940;SDS011;5009;50.656;7.188;2023-10-19T08:27:08;7.50;;;5.50;;
9940;SDS011;5009;50.656;7.188;2023-10-19T08:29:36;6.13;;;4.50;;
9940;SDS011;5009;50.656;7.188;2023-10-19T08:32:01;11.38;;;5.32;;
9940;SDS011;5009;50.656;7.188;2023-10-19T08:34:27;6.57;;;5.05;;
9940;SDS011;5009;50.656;7.188;2023-10-19T08:36:54;6.78;;;5.05;;
9940;SDS011;5009;50.656;7.188;2023-10-19T08:39:20;5.20;;;4.38;;
9940;SDS011;5009;50.656;7.188;2023-10-19T08:41:49;10.18;;;4.97;;
9940;SDS011;5009;50.656;7.188;2023-10-19T08:44:18;6.78;;;4.72;;
9940;SDS011;5009;50.656;7.188;2023-10-19T08:46:45;7.05;;;4.88;;
9940;SDS011;5009;50.656;7.188;2023-10-19T08:49:12;6.45;;;4.63;;
9940;SDS011;5009;50.656;7.188;2023-10-19T08:51:40;6.47;;;4.88;;
9940;SDS011;5009;50.656;7.188;2023-10-19T08:54:09;7.63;;;4.55;;
9940;SDS011;5009;50.656;7.188;2023-10-19T08:56:37;5.68;;;4.10;;
9940;SDS011;5009;50.656;7.188;2023-10-19T08:59:04;6.43;;;4.35;;
9940;SDS011;5009;50.656;7.188;2023-10-19T09:01:31;5.20;;;3.90;;
9940;SDS011;5009;50.656;7.188;2023-10-19T09:04:00;5.38;;;3.60;;
9940;SDS011;5009;50.656;7.188;2023-10-19T09:06:26;6.55;;;3.95;;
9940;SDS011;5009;50.656;7.188;2023-10-19T09:08:54;6.32;;;3.97;;
9940;SDS011;5009;50.656;7.188;2023-10-19T09:11:20;7.57;;;3.25;;
9940;SDS011;5009;50.656;7.188;2023-10-19T09:13:47;5.85;;;3.45;;
9940;SDS011;5009;50.656;7.188;2023-10-19T09:16:15;5.90;;;3.45;;
9940;SDS011;5009;50.656;7.188;2023-10-19T09:18:45;7.35;;;4.00;;
9940;SDS011;5009;50.656;7.188;2023-10-19T09:21:21;9.82;;;4.10;;
9940;SDS011;5009;50.656;7.188;2023-10-19T09:23:53;5.30;;;3.38;;
9940;SDS011;5009;50.656;7.188;2023-10-19T09:26:21;4.00;;;3.15;;
9940;SDS011;5009;50.656;7.188;2023-10-19T09:28:50;3.30;;;3.00;;
9940;SDS011;5009;50.656;7.188;2023-10-19T09:31:17;7.93;;;3.17;;
9940;SDS011;5009;50.656;7.188;2023-10-19T09:33:44;8.50;;;3.28;;
9940;SDS011;5009;50.656;7.188;2023-10-19T09:36:11;6.32;;;3.30;;
9940;SDS011;5009;50.656;7.188;2023-10-19T09:38:44;10.30;;;3.40;;
9940;SDS011;5009;50.656;7.188;2023-10-19T09:41:15;4.82;;;2.90;;
9940;SDS011;5009;50.656;7.188;2023-10-19T09:43:44;6.38;;;3.25;;
9940;SDS011;5009;50.656;7.188;2023-10-19T09:46:19;6.28;;;3.05;;
9940;SDS011;5009;50.656;7.188;2023-10-19T09:48:46;9.43;;;3.60;;
9940;SDS011;5009;50.656;7.188;2023-10-19T09:51:15;6.55;;;3.55;;
9940;SDS011;5009;50.656;7.188;2023-10-19T09:53:44;5.80;;;3.10;;
9940;SDS011;5009;50.656;7.188;2023-10-19T09:56:15;7.03;;;3.35;;
9940;SDS011;5009;50.656;7.188;2023-10-19T09:59:13;7.78;;;3.08;;
9940;SDS011;5009;50.656;7.188;2023-10-19T10:04:33;7.90;;;2.97;;
9940;SDS011;5009;50.656;7.188;2023-10-19T10:07:00;6.03;;;3.08;;
9940;SDS011;5009;50.656;7.188;2023-10-19T10:09:29;7.22;;;3.05;;
9940;SDS011;5009;50.656;7.188;2023-10-19T10:11:55;7.88;;;3.10;;
9940;SDS011;5009;50.656;7.188;2023-10-19T10:14:25;5.85;;;3.45;;
9940;SDS011;5009;50.656;7.188;2023-10-19T10:17:00;6.60;;;3.20;;
9940;SDS011;5009;50.656;7.188;2023-10-19T10:19:30;7.00;;;3.05;;
9940;SDS011;5009;50.656;7.188;2023-10-19T10:22:08;9.40;;;3.50;;
9940;SDS011;5009;50.656;7.188;2023-10-19T10:24:43;5.15;;;3.25;;
9940;SDS011;5009;50.656;7.188;2023-10-19T10:27:09;6.38;;;3.15;;
9940;SDS011;5009;50.656;7.188;2023-10-19T10:29:38;4.60;;;2.83;;
9940;SDS011;5009;50.656;7.188;2023-10-19T10:38:05;6.50;;;3.28;;
9940;SDS011;5009;50.656;7.188;2023-10-19T10:40:41;5.93;;;3.25;;
9940;SDS011;5009;50.656;7.188;2023-10-19T10:43:14;6.13;;;3.30;;
9940;SDS011;5009;50.656;7.188;2023-10-19T10:45:41;9.80;;;3.50;;
9940;SDS011;5009;50.656;7.188;2023-10-19T10:48:13;7.75;;;3.95;;
9940;SDS011;5009;50.656;7.188;2023-10-19T10:50:40;7.72;;;3.38;;
9940;SDS011;5009;50.656;7.188;2023-10-19T10:53:07;6.20;;;3.30;;
9940;SDS011;5009;50.656;7.188;2023-10-19T10:55:36;6.97;;;3.55;;
9940;SDS011;5009;50.656;7.188;2023-10-19T10:58:03;7.47;;;3.47;;
9940;SDS011;5009;50.656;7.188;2023-10-19T11:00:28;6.55;;;3.47;;
9940;SDS011;5009;50.656;7.188;2023-10-19T11:02:59;6.43;;;3.67;;
9940;SDS011;5009;50.656;7.188;2023-10-19T11:05:25;7.57;;;3.55;;
9940;SDS011;5009;50.656;7.188;2023-10-19T11:10:32;10.80;;;3.60;;
9940;SDS011;5009;50.656;7.188;2023-10-19T11:13:03;7.13;;;3.47;;
9940;SDS011;5009;50.656;7.188;2023-10-19T11:15:29;8.65;;;3.78;;
9940;SDS011;5009;50.656;7.188;2023-10-19T11:17:55;4.18;;;3.40;;
9940;SDS011;5009;50.656;7.188;2023-10-19T11:20:21;5.57;;;3.75;;
9940;SDS011;5009;50.656;7.188;2023-10-19T11:22:48;5.95;;;3.42;;
9940;SDS011;5009;50.656;7.188;2023-10-19T11:25:21;7.68;;;3.63;;
9940;SDS011;5009;50.656;7.188;2023-10-19T11:27:53;5.97;;;3.55;;
9940;SDS011;5009;50.656;7.188;2023-10-19T11:30:26;5.95;;;3.53;;
9940;SDS011;5009;50.656;7.188;2023-10-19T11:32:59;6.45;;;3.75;;
9940;SDS011;5009;50.656;7.188;2023-10-19T11:35:26;7.72;;;3.85;;
9940;SDS011;5009;50.656;7.188;2023-10-19T11:37:55;6.10;;;3.42;;
9940;SDS011;5009;50.656;7.188;2023-10-19T11:40:23;7.55;;;4.18;;
9940;SDS011;5009;50.656;7.188;2023-10-19T11:42:49;6.25;;;3.63;;
9940;SDS011;5009;50.656;7.188;2023-10-19T11:45:15;9.00;;;4.22;;
9940;SDS011;5009;50.656;7.188;2023-10-19T11:47:42;8.52;;;4.50;;
9940;SDS011;5009;50.656;7.188;2023-10-19T11:50:11;8.63;;;4.70;;
9940;SDS011;5009;50.656;7.188;2023-10-19T11:52:41;9.27;;;4.47;;
9940;SDS011;5009;50.656;7.188;2023-10-19T11:55:07;8.25;;;3.90;;
9940;SDS011;5009;50.656;7.188;2023-10-19T11:57:33;11.60;;;4.97;;
9940;SDS011;5009;50.656;7.188;2023-10-19T11:59:59;8.35;;;4.07;;
9940;SDS011;5009;50.656;7.188;2023-10-19T12:02:26;6.25;;;3.53;;
9940;SDS011;5009;50.656;7.188;2023-10-19T12:04:51;5.50;;;3.53;;
9940;SDS011;5009;50.656;7.188;2023-10-19T12:07:17;7.95;;;3.78;;
9940;SDS011;5009;50.656;7.188;2023-10-19T12:09:43;8.30;;;3.80;;
9940;SDS011;5009;50.656;7.188;2023-10-19T12:12:09;7.57;;;3.50;;
9940;SDS011;5009;50.656;7.188;2023-10-19T12:14:38;9.75;;;4.03;;
9940;SDS011;5009;50.656;7.188;2023-10-19T12:17:04;8.70;;;3.83;;
9940;SDS011;5009;50.656;7.188;2023-10-19T12:19:32;8.52;;;4.00;;
9940;SDS011;5009;50.656;7.188;2023-10-19T12:21:59;6.88;;;3.65;;
9940;SDS011;5009;50.656;7.188;2023-10-19T12:24:27;8.40;;;4.00;;
9940;SDS011;5009;50.656;7.188;2023-10-19T12:26:54;8.57;;;3.67;;
9940;SDS011;5009;50.656;7.188;2023-10-19T12:29:20;6.95;;;3.72;;
9940;SDS011;5009;50.656;7.188;2023-10-19T12:31:46;8.00;;;4.22;;
9940;SDS011;5009;50.656;7.188;2023-10-19T12:34:12;10.20;;;4.35;;
9940;SDS011;5009;50.656;7.188;2023-10-19T12:36:38;9.48;;;3.58;;
9940;SDS011;5009;50.656;7.188;2023-10-19T12:39:04;10.13;;;3.83;;
9940;SDS011;5009;50.656;7.188;2023-10-19T12:41:33;8.68;;;3.58;;
9940;SDS011;5009;50.656;7.188;2023-10-19T12:43:59;9.32;;;3.60;;
9940;SDS011;5009;50.656;7.188;2023-10-19T12:46:33;5.35;;;3.53;;
9940;SDS011;5009;50.656;7.188;2023-10-19T12:49:02;7.65;;;3.53;;
9940;SDS011;5009;50.656;7.188;2023-10-19T12:51:38;9.05;;;3.75;;
9940;SDS011;5009;50.656;7.188;2023-10-19T12:54:07;7.38;;;3.75;;
9940;SDS011;5009;50.656;7.188;2023-10-19T12:56:35;8.50;;;3.92;;
9940;SDS011;5009;50.656;7.188;2023-10-19T12:59:00;7.68;;;3.50;;
9940;SDS011;5009;50.656;7.188;2023-10-19T13:01:26;6.50;;;3.40;;
9940;SDS011;5009;50.656;7.188;2023-10-19T13:03:53;7.22;;;3.90;;
9940;SDS011;5009;50.656;7.188;2023-10-19T13:06:18;8.25;;;3.47;;
9940;SDS011;5009;50.656;7.188;2023-10-19T13:08:50;8.35;;;3.50;;
9940;SDS011;5009;50.656;7.188;2023-10-19T13:11:16;8.77;;;4.03;;
9940;SDS011;5009;50.656;7.188;2023-10-19T13:13:43;7.20;;;3.70;;
9940;SDS011;5009;50.656;7.188;2023-10-19T13:16:09;6.78;;;3.63;;
9940;SDS011;5009;50.656;7.188;2023-10-19T13:18:35;5.25;;;3.28;;
9940;SDS011;5009;50.656;7.188;2023-10-19T13:21:01;7.07;;;3.45;;
9940;SDS011;5009;50.656;7.188;2023-10-19T13:23:32;8.32;;;3.95;;
9940;SDS011;5009;50.656;7.188;2023-10-19T13:25:58;6.70;;;3.80;;
9940;SDS011;5009;50.656;7.188;2023-10-19T13:28:42;7.78;;;3.90;;
9940;SDS011;5009;50.656;7.188;2023-10-19T13:31:08;8.73;;;3.70;;
9940;SDS011;5009;50.656;7.188;2023-10-19T13:33:40;6.47;;;4.03;;
9940;SDS011;5009;50.656;7.188;2023-10-19T13:36:06;8.48;;;3.58;;
9940;SDS011;5009;50.656;7.188;2023-10-19T13:38:32;8.25;;;4.03;;
9940;SDS011;5009;50.656;7.188;2023-10-19T13:40:58;11.95;;;4.22;;
9940;SDS011;5009;50.656;7.188;2023-10-19T13:43:24;5.32;;;3.80;;
9940;SDS011;5009;50.656;7.188;2023-10-19T13:45:49;6.03;;;3.78;;
9940;SDS011;5009;50.656;7.188;2023-10-19T13:48:18;6.28;;;4.22;;
9940;SDS011;5009;50.656;7.188;2023-10-19T13:50:45;7.95;;;4.88;;
9940;SDS011;5009;50.656;7.188;2023-10-19T13:53:15;8.30;;;4.13;;
9940;SDS011;5009;50.656;7.188;2023-10-19T13:55:41;7.15;;;4.65;;
9940;SDS011;5009;50.656;7.188;2023-10-19T13:58:07;8.68;;;5.28;;
9940;SDS011;5009;50.656;7.188;2023-10-19T14:00:33;8.68;;;5.28;;
9940;SDS011;5009;50.656;7.188;2023-10-19T14:03:05;7.85;;;5.35;;
9940;SDS011;5009;50.656;7.188;2023-10-19T14:05:36;9.88;;;5.75;;
9940;SDS011;5009;50.656;7.188;2023-10-19T14:08:07;9.75;;;5.55;;
9940;SDS011;5009;50.656;7.188;2023-10-19T14:10:34;8.80;;;5.88;;
9940;SDS011;5009;50.656;7.188;2023-10-19T14:13:00;8.48;;;5.28;;
9940;SDS011;5009;50.656;7.188;2023-10-19T14:15:27;7.65;;;5.70;;
9940;SDS011;5009;50.656;7.188;2023-10-19T14:17:55;10.70;;;5.53;;
9940;SDS011;5009;50.656;7.188;2023-10-19T14:20:23;9.57;;;5.78;;
9940;SDS011;5009;50.656;7.188;2023-10-19T14:22:49;7.55;;;5.63;;
9940;SDS011;5009;50.656;7.188;2023-10-19T14:25:15;8.40;;;5.43;;
9940;SDS011;5009;50.656;7.188;2023-10-19T14:27:42;8.07;;;5.90;;
9940;SDS011;5009;50.656;7.188;2023-10-19T14:30:09;6.82;;;5.28;;
9940;SDS011;5009;50.656;7.188;2023-10-19T14:32:42;6.18;;;5.07;;
9940;SDS011;5009;50.656;7.188;2023-10-19T14:35:09;8.50;;;5.82;;
9940;SDS011;5009;50.656;7.188;2023-10-19T14:37:39;6.70;;;5.25;;
9940;SDS011;5009;50.656;7.188;2023-10-19T14:40:12;6.35;;;5.75;;
9940;SDS011;5009;50.656;7.188;2023-10-19T14:42:41;6.32;;;5.07;;
9940;SDS011;5009;50.656;7.188;2023-10-19T14:45:11;5.95;;;5.10;;
9940;SDS011;5009;50.656;7.188;2023-10-19T14:47:39;7.38;;;4.95;;
9940;SDS011;5009;50.656;7.188;2023-10-19T14:50:14;6.05;;;5.50;;
9940;SDS011;5009;50.656;7.188;2023-10-19T14:52:43;7.70;;;5.32;;
9940;SDS011;5009;50.656;7.188;2023-10-19T14:55:09;7.43;;;4.97;;
9940;SDS011;5009;50.656;7.188;2023-10-19T14:57:36;8.77;;;5.00;;
9940;SDS011;5009;50.656;7.188;2023-10-19T15:00:04;7.25;;;5.35;;
9940;SDS011;5009;50.656;7.188;2023-10-19T15:02:50;7.97;;;5.40;;
9940;SDS011;5009;50.656;7.188;2023-10-19T15:05:16;5.82;;;4.78;;
9940;SDS011;5009;50.656;7.188;2023-10-19T15:07:43;5.35;;;4.85;;
9940;SDS011;5009;50.656;7.188;2023-10-19T15:10:10;6.35;;;5.10;;
9940;SDS011;5009;50.656;7.188;2023-10-19T15:12:39;6.80;;;4.78;;
9940;SDS011;5009;50.656;7.188;2023-10-19T15:15:06;6.63;;;4.95;;
9940;SDS011;5009;50.656;7.188;2023-10-19T15:17:33;6.28;;;5.07;;
9940;SDS011;5009;50.656;7.188;2023-10-19T15:20:01;5.40;;;4.90;;
9940;SDS011;5009;50.656;7.188;2023-10-19T15:22:28;5.63;;;5.13;;
9940;SDS011;5009;50.656;7.188;2023-10-19T15:24:53;9.00;;;5.47;;
9940;SDS011;5009;50.656;7.188;2023-10-19T15:27:19;6.60;;;5.70;;
9940;SDS011;5009;50.656;7.188;2023-10-19T15:29:45;7.35;;;5.72;;
9940;SDS011;5009;50.656;7.188;2023-10-19T15:32:10;6.05;;;5.43;;
9940;SDS011;5009;50.656;7.188;2023-10-19T15:34:36;6.88;;;5.28;;
9940;SDS011;5009;50.656;7.188;2023-10-19T15:37:01;7.78;;;5.20;;
9940;SDS011;5009;50.656;7.188;2023-10-19T15:39:27;6.07;;;5.47;;
9940;SDS011;5009;50.656;7.188;2023-10-19T15:41:53;8.10;;;6.20;;
9940;SDS011;5009;50.656;7.188;2023-10-19T15:44:18;6.32;;;5.70;;
9940;SDS011;5009;50.656;7.188;2023-10-19T15:46:44;7.95;;;6.07;;
9940;SDS011;5009;50.656;7.188;2023-10-19T15:49:12;8.68;;;6.35;;
9940;SDS011;5009;50.656;7.188;2023-10-19T15:51:39;7.30;;;6.65;;
9940;SDS011;5009;50.656;7.188;2023-10-19T15:54:05;7.05;;;6.35;;
9940;SDS011;5009;50.656;7.188;2023-10-19T15:56:31;6.60;;;5.97;;
9940;SDS011;5009;50.656;7.188;2023-10-19T15:58:58;7.13;;;6.43;;
9940;SDS011;5009;50.656;7.188;2023-10-19T16:01:23;7.53;;;6.50;;
9940;SDS011;5009;50.656;7.188;2023-10-19T16:03:50;6.72;;;6.13;;
9940;SDS011;5009;50.656;7.188;2023-10-19T16:06:15;7.90;;;7.07;;
9940;SDS011;5009;50.656;7.188;2023-10-19T16:08:41;8.60;;;6.00;;
9940;SDS011;5009;50.656;7.188;2023-10-19T16:11:07;7.22;;;6.47;;
9940;SDS011;5009;50.656;7.188;2023-10-19T16:13:33;8.20;;;6.18;;
9940;SDS011;5009;50.656;7.188;2023-10-19T16:16:01;6.88;;;6.28;;
9940;SDS011;5009;50.656;7.188;2023-10-19T16:18:28;7.57;;;6.05;;
9940;SDS011;5009;50.656;7.188;2023-10-19T16:20:53;8.48;;;6.20;;
9940;SDS011;5009;50.656;7.188;2023-10-19T16:23:19;7.47;;;6.72;;
9940;SDS011;5009;50.656;7.188;2023-10-19T16:25:45;32.28;;;29.15;;
9940;SDS011;5009;50.656;7.188;2023-10-19T16:28:10;36.22;;;32.92;;
9940;SDS011;5009;50.656;7.188;2023-10-19T16:30:36;37.05;;;33.78;;
9940;SDS011;5009;50.656;7.188;2023-10-19T16:33:02;29.30;;;26.75;;
9940;SDS011;5009;50.656;7.188;2023-10-19T16:35:30;20.88;;;19.13;;
9940;SDS011;5009;50.656;7.188;2023-10-19T16:37:56;14.05;;;12.75;;
9940;SDS011;5009;50.656;7.188;2023-10-19T16:40:22;13.10;;;12.00;;
9940;SDS011;5009;50.656;7.188;2023-10-19T16:42:47;29.27;;;26.48;;
9940;SDS011;5009;50.656;7.188;2023-10-19T16:45:13;11.63;;;10.43;;
9940;SDS011;5009;50.656;7.188;2023-10-19T16:47:38;9.68;;;8.77;;
9940;SDS011;5009;50.656;7.188;2023-10-19T16:50:06;9.98;;;8.07;;
9940;SDS011;5009;50.656;7.188;2023-10-19T16:52:43;7.95;;;7.25;;
9940;SDS011;5009;50.656;7.188;2023-10-19T16:55:09;8.52;;;7.30;;
9940;SDS011;5009;50.656;7.188;2023-10-19T16:57:35;8.35;;;7.25;;
9940;SDS011;5009;50.656;7.188;2023-10-19T17:00:00;12.27;;;8.60;;
9940;SDS011;5009;50.656;7.188;2023-10-19T17:02:26;9.80;;;6.82;;
9940;SDS011;5009;50.656;7.188;2023-10-19T17:04:52;8.68;;;7.63;;
9940;SDS011;5009;50.656;7.188;2023-10-19T17:07:17;8.02;;;6.30;;
9940;SDS011;5009;50.656;7.188;2023-10-19T17:09:43;7.93;;;7.30;;
9940;SDS011;5009;50.656;7.188;2023-10-19T17:12:10;6.90;;;6.30;;
9940;SDS011;5009;50.656;7.188;2023-10-19T17:14:36;6.82;;;6.32;;
9940;SDS011;5009;50.656;7.188;2023-10-19T17:17:02;7.20;;;6.50;;
9940;SDS011;5009;50.656;7.188;2023-10-19T17:19:28;6.45;;;5.93;;
9940;SDS011;5009;50.656;7.188;2023-10-19T17:21:54;8.05;;;6.32;;
9940;SDS011;5009;50.656;7.188;2023-10-19T17:24:20;8.10;;;7.28;;
9940;SDS011;5009;50.656;7.188;2023-10-19T17:26:45;6.30;;;5.70;;
9940;SDS011;5009;50.656;7.188;2023-10-19T17:29:11;6.30;;;5.70;;
9940;SDS011;5009;50.656;7.188;2023-10-19T17:31:37;6.03;;;5.53;;
9940;SDS011;5009;50.656;7.188;2023-10-19T17:34:04;5.70;;;5.20;;
9940;SDS011;5009;50.656;7.188;2023-10-19T17:36:31;6.82;;;5.28;;
9940;SDS011;5009;50.656;7.188;2023-10-19T17:38:57;6.75;;;5.80;;
9940;SDS011;5009;50.656;7.188;2023-10-19T17:41:23;5.80;;;5.13;;
9940;SDS011;5009;50.656;7.188;2023-10-19T17:43:49;8.45;;;6.60;;
9940;SDS011;5009;50.656;7.188;2023-10-19T17:46:15;6.30;;;5.65;;
9940;SDS011;5009;50.656;7.188;2023-10-19T17:48:41;8.70;;;6.70;;
9940;SDS011;5009;50.656;7.188;2023-10-19T17:51:12;7.50;;;6.80;;
9940;SDS011;5009;50.656;7.188;2023-10-19T17:53:39;9.30;;;7.07;;
9940;SDS011;5009;50.656;7.188;2023-10-19T17:56:05;8.93;;;8.13;;
9940;SDS011;5009;50.656;7.188;2023-10-19T17:58:31;10.45;;;9.40;;
9940;SDS011;5009;50.656;7.188;2023-10-19T18:00:57;10.95;;;9.07;;
9940;SDS011;5009;50.656;7.188;2023-10-19T18:03:24;9.35;;;8.45;;
9940;SDS011;5009;50.656;7.188;2023-10-19T18:05:50;8.15;;;7.38;;
9940;SDS011;5009;50.656;7.188;2023-10-19T18:08:15;11.05;;;8.07;;
9940;SDS011;5009;50.656;7.188;2023-10-19T18:10:41;8.90;;;8.00;;
9940;SDS011;5009;50.656;7.188;2023-10-19T18:13:07;9.07;;;8.13;;
9940;SDS011;5009;50.656;7.188;2023-10-19T18:15:35;9.85;;;6.80;;
9940;SDS011;5009;50.656;7.188;2023-10-19T18:18:02;6.70;;;6.00;;
9940;SDS011;5009;50.656;7.188;2023-10-19T18:20:31;6.35;;;5.75;;
9940;SDS011;5009;50.656;7.188;2023-10-19T18:22:57;7.23;;;6.20;;
9940;SDS011;5009;50.656;7.188;2023-10-19T18:25:23;7.30;;;6.60;;
9940;SDS011;5009;50.656;7.188;2023-10-19T18:27:53;7.40;;;6.70;;
9940;SDS011;5009;50.656;7.188;2023-10-19T18:30:19;7.43;;;6.23;;
9940;SDS011;5009;50.656;7.188;2023-10-19T18:32:45;7.63;;;6.80;;
9940;SDS011;5009;50.656;7.188;2023-10-19T18:35:10;7.50;;;6.80;;
9940;SDS011;5009;50.656;7.188;2023-10-19T18:37:36;7.27;;;6.63;;
9940;SDS011;5009;50.656;7.188;2023-10-19T18:40:03;8.97;;;6.57;;
9940;SDS011;5009;50.656;7.188;2023-10-19T18:42:29;7.00;;;6.40;;
9940;SDS011;5009;50.656;7.188;2023-10-19T18:44:56;6.57;;;5.83;;
9940;SDS011;5009;50.656;7.188;2023-10-19T18:47:24;6.67;;;5.97;;
9940;SDS011;5009;50.656;7.188;2023-10-19T18:49:56;6.75;;;6.03;;
9940;SDS011;5009;50.656;7.188;2023-10-19T18:52:22;7.07;;;6.47;;
9940;SDS011;5009;50.656;7.188;2023-10-19T18:54:48;7.43;;;6.10;;
9940;SDS011;5009;50.656;7.188;2023-10-19T18:57:13;6.93;;;5.63;;
9940;SDS011;5009;50.656;7.188;2023-10-19T18:59:39;5.93;;;5.43;;
9940;SDS011;5009;50.656;7.188;2023-10-19T19:02:05;6.50;;;5.67;;
9940;SDS011;5009;50.656;7.188;2023-10-19T19:04:32;6.93;;;6.23;;
9940;SDS011;5009;50.656;7.188;2023-10-19T19:06:59;6.83;;;6.13;;
9940;SDS011;5009;50.656;7.188;2023-10-19T19:09:24;6.70;;;6.10;;
9940;SDS011;5009;50.656;7.188;2023-10-19T19:11:50;7.93;;;6.53;;
9940;SDS011;5009;50.656;7.188;2023-10-19T19:14:16;6.67;;;6.07;;
9940;SDS011;5009;50.656;7.188;2023-10-19T19:16:42;7.53;;;6.35;;
9940;SDS011;5009;50.656;7.188;2023-10-19T19:19:09;6.43;;;5.93;;
9940;SDS011;5009;50.656;7.188;2023-10-19T19:21:36;5.45;;;5.05;;
9940;SDS011;5009;50.656;7.188;2023-10-19T19:24:05;7.00;;;6.30;;